createdAt,value
2023-09-05T00:01:50.372Z,2.35
2023-09-05T00:04:57.287Z,2.70
2023-09-05T00:08:01.247Z,2.50
2023-09-05T00:11:05.618Z,2.65
2023-09-05T00:14:12.236Z,2.50
2023-09-05T00:17:15.996Z,2.40
2023-09-05T00:20:21.153Z,2.33
2023-09-05T00:23:28.406Z,2.75
2023-09-05T00:26:32.721Z,2.40
2023-09-05T00:29:39.159Z,2.30
2023-09-05T00:32:43.549Z,2.60
2023-09-05T00:35:50.260Z,2.53
2023-09-05T00:38:54.191Z,2.75
2023-09-05T00:41:58.443Z,2.60
2023-09-05T00:45:04.481Z,2.70
2023-09-05T00:48:09.939Z,2.53
2023-09-05T00:51:14.845Z,3.10
2023-09-05T00:54:19.304Z,2.75
2023-09-05T00:57:24.111Z,2.42
2023-09-05T01:00:29.500Z,3.03
2023-09-05T01:03:33.690Z,2.97
2023-09-05T01:06:48.373Z,2.83
2023-09-05T01:09:58.353Z,3.33
2023-09-05T01:13:02.314Z,2.38
2023-09-05T01:16:11.181Z,2.40
2023-09-05T01:19:18.606Z,2.55
2023-09-05T01:22:36.255Z,2.55
2023-09-05T01:25:41.808Z,2.70
2023-09-05T01:28:48.403Z,2.75
2023-09-05T01:31:52.406Z,3.08
2023-09-05T01:34:56.095Z,3.13
2023-09-05T01:38:01.674Z,3.17
2023-09-05T01:41:07.194Z,2.88
2023-09-05T01:44:11.142Z,3.40
2023-09-05T01:47:15.241Z,3.35
2023-09-05T01:50:21.008Z,2.95
2023-09-05T01:53:25.814Z,3.33
2023-09-05T01:56:32.116Z,3.10
2023-09-05T01:59:36.145Z,3.15
2023-09-05T02:02:39.981Z,3.22
2023-09-05T02:05:43.927Z,2.95
2023-09-05T02:08:47.893Z,3.05
2023-09-05T02:11:53.274Z,3.10
2023-09-05T02:14:57.213Z,3.00
2023-09-05T02:18:03.718Z,3.17
2023-09-05T02:21:07.769Z,2.97
2023-09-05T02:24:11.732Z,3.08
2023-09-05T02:27:17.061Z,3.25
2023-09-05T02:30:21.519Z,3.00
2023-09-05T02:33:26.411Z,3.33
2023-09-05T02:36:32.370Z,3.22
2023-09-05T02:39:36.332Z,3.15
2023-09-05T02:42:41.667Z,2.95
2023-09-05T02:45:53.941Z,3.20
2023-09-05T02:48:58.498Z,3.03
2023-09-05T02:52:02.597Z,2.92
2023-09-05T02:55:07.368Z,2.50
2023-09-05T02:58:12.778Z,2.63
2023-09-05T03:01:17.685Z,2.60
2023-09-05T03:04:21.597Z,2.60
2023-09-05T03:07:25.641Z,2.80
2023-09-05T03:10:29.570Z,2.58
2023-09-05T03:13:34.950Z,2.88
2023-09-05T03:16:39.079Z,2.85
2023-09-05T03:19:43.160Z,2.63
2023-09-05T03:22:47.238Z,2.38
2023-09-05T03:25:52.441Z,2.80
2023-09-05T03:29:01.240Z,2.33
2023-09-05T03:32:05.772Z,2.95
2023-09-05T03:35:11.489Z,2.70
2023-09-05T03:38:15.470Z,3.20
2023-09-05T03:41:19.410Z,3.03
2023-09-05T03:44:24.792Z,2.80
2023-09-05T03:47:28.864Z,2.92
2023-09-05T03:50:32.928Z,2.78
2023-09-05T03:53:38.451Z,2.55
2023-09-05T03:56:44.384Z,2.60
2023-09-05T03:59:51.470Z,2.53
2023-09-05T04:02:55.408Z,2.67
2023-09-05T04:06:03.010Z,2.70
2023-09-05T04:09:07.111Z,2.95
2023-09-05T04:12:11.331Z,3.15
2023-09-05T04:15:21.326Z,2.45
2023-09-05T04:18:25.422Z,2.65
2023-09-05T04:21:29.352Z,2.67
2023-09-05T04:24:33.281Z,2.60
2023-09-05T04:27:37.798Z,3.70
2023-09-05T04:30:43.228Z,2.42
2023-09-05T04:33:47.148Z,2.55
2023-09-05T04:36:51.052Z,2.40
2023-09-05T04:39:55.907Z,2.10
2023-09-05T04:42:59.686Z,2.28
2023-09-05T04:46:07.517Z,2.63
2023-09-05T04:49:11.953Z,2.58
2023-09-05T04:52:16.323Z,2.60
2023-09-05T04:55:20.183Z,2.22
2023-09-05T04:58:24.365Z,2.40
2023-09-05T05:01:29.949Z,2.17
2023-09-05T05:04:33.933Z,2.40
2023-09-05T05:07:38.143Z,3.10
2023-09-05T05:10:42.244Z,2.33
2023-09-05T05:13:46.085Z,2.33
2023-09-05T05:16:51.569Z,2.58
2023-09-05T05:19:55.530Z,2.55
2023-09-05T05:22:59.407Z,2.70
2023-09-05T05:26:03.364Z,2.83
2023-09-05T05:29:07.435Z,2.53
2023-09-05T05:32:17.752Z,2.97
2023-09-05T05:35:21.828Z,2.95
2023-09-05T05:38:26.183Z,2.70
2023-09-05T05:41:30.639Z,2.70
2023-09-05T05:44:35.019Z,2.30
2023-09-05T05:47:42.870Z,2.78
2023-09-05T05:50:47.130Z,2.17
2023-09-05T05:53:56.458Z,2.85
2023-09-05T05:57:01.205Z,2.60
2023-09-05T06:00:06.199Z,2.83
2023-09-05T06:03:17.808Z,2.70
2023-09-05T06:06:21.987Z,3.30
2023-09-05T06:09:25.892Z,2.90
2023-09-05T06:12:29.899Z,3.00
2023-09-05T06:15:36.439Z,2.90
2023-09-05T06:18:43.351Z,3.30
2023-09-05T06:21:48.066Z,3.45
2023-09-05T06:24:52.402Z,3.15
2023-09-05T06:27:56.432Z,3.63
2023-09-05T06:31:00.973Z,3.42
2023-09-05T06:34:06.529Z,3.30
2023-09-05T06:37:11.522Z,3.17
2023-09-05T06:40:16.876Z,3.40
2023-09-05T06:43:21.212Z,3.50
2023-09-05T06:46:25.195Z,3.60
2023-09-05T06:49:30.639Z,3.35
2023-09-05T06:52:34.517Z,3.38
2023-09-05T06:55:38.683Z,3.80
2023-09-05T06:58:42.706Z,3.28
2023-09-05T07:01:46.791Z,3.15
2023-09-05T07:04:52.299Z,3.20
2023-09-05T07:07:56.269Z,3.20
2023-09-05T07:11:00.383Z,3.88
2023-09-05T07:14:05.381Z,4.20
2023-09-05T07:17:09.892Z,3.60
2023-09-05T07:20:15.528Z,3.83
2023-09-05T07:23:20.469Z,4.15
2023-09-05T07:26:24.752Z,3.65
2023-09-05T07:29:28.860Z,3.90
2023-09-05T07:32:32.886Z,4.22
2023-09-05T07:35:41.217Z,4.03
2023-09-05T07:38:48.603Z,4.85
2023-09-05T07:41:52.866Z,4.45
2023-09-05T07:44:56.840Z,4.40
2023-09-05T07:48:00.867Z,4.43
2023-09-05T07:51:08.793Z,3.97
2023-09-05T07:54:16.207Z,4.50
2023-09-05T07:57:20.151Z,4.57
2023-09-05T08:00:28.367Z,4.85
2023-09-05T08:03:32.146Z,4.60
2023-09-05T08:06:38.300Z,4.57
2023-09-05T08:09:43.053Z,5.30
2023-09-05T08:12:47.071Z,5.18
2023-09-05T08:15:52.808Z,5.07
2023-09-05T08:18:56.711Z,4.60
2023-09-05T08:22:02.188Z,4.80
2023-09-05T08:25:08.599Z,5.35
2023-09-05T08:28:14.117Z,5.22
2023-09-05T08:31:19.052Z,4.97
2023-09-05T08:34:23.158Z,5.22
2023-09-05T08:37:29.041Z,4.55
2023-09-05T08:40:37.643Z,4.28
2023-09-05T08:43:42.073Z,4.35
2023-09-05T08:46:48.218Z,4.38
2023-09-05T08:49:52.723Z,4.63
2023-09-05T08:52:59.975Z,4.72
2023-09-05T08:56:07.952Z,4.93
2023-09-05T08:59:11.960Z,4.38
2023-09-05T09:02:17.616Z,4.70
2023-09-05T09:05:22.465Z,5.15
2023-09-05T09:08:28.179Z,4.72
2023-09-05T09:11:34.056Z,4.80
2023-09-05T09:14:38.585Z,4.90
2023-09-05T09:17:43.778Z,5.32
2023-09-05T09:20:48.799Z,4.68
2023-09-05T09:23:54.019Z,4.63
2023-09-05T09:26:57.975Z,5.47
2023-09-05T09:30:02.084Z,5.35
2023-09-05T09:33:07.046Z,5.07
2023-09-05T09:36:13.220Z,4.82
2023-09-05T09:39:18.802Z,5.32
2023-09-05T09:42:25.611Z,5.00
2023-09-05T09:45:29.631Z,5.28
2023-09-05T09:48:36.381Z,5.60
2023-09-05T09:51:45.662Z,5.10
2023-09-05T09:54:52.593Z,5.63
2023-09-05T09:58:03.461Z,6.28
2023-09-05T10:01:09.453Z,6.35
2023-09-05T10:04:14.354Z,6.30
2023-09-05T10:07:21.782Z,6.13
2023-09-05T10:10:30.328Z,6.32
2023-09-05T10:13:39.351Z,6.60
2023-09-05T10:16:47.264Z,5.82
2023-09-05T10:19:53.184Z,5.82
2023-09-05T10:22:57.154Z,6.38
2023-09-05T10:26:04.645Z,5.55
2023-09-05T10:29:36.278Z,5.60
2023-09-05T10:32:45.629Z,5.32
2023-09-05T10:35:49.653Z,5.68
2023-09-05T10:38:58.897Z,5.15
2023-09-05T10:42:04.268Z,5.88
2023-09-05T10:45:20.632Z,5.70
2023-09-05T10:48:35.084Z,5.68
2023-09-05T10:51:39.047Z,5.45
2023-09-05T10:54:43.237Z,5.65
2023-09-05T10:57:51.675Z,6.00
2023-09-05T11:00:56.318Z,6.43
2023-09-05T11:04:05.454Z,5.05
2023-09-05T11:07:11.660Z,5.60
2023-09-05T11:10:28.076Z,5.75
2023-09-05T11:13:33.570Z,5.97
2023-09-05T11:16:48.512Z,6.28
2023-09-05T11:19:54.925Z,5.43
2023-09-05T11:22:59.325Z,5.63
2023-09-05T11:26:05.543Z,6.47
2023-09-05T11:29:10.915Z,5.95
2023-09-05T11:32:16.500Z,6.00
2023-09-05T11:35:21.329Z,6.30
2023-09-05T11:38:31.302Z,5.60
2023-09-05T11:41:42.335Z,5.30
2023-09-05T11:44:47.828Z,5.57
2023-09-05T11:47:53.332Z,5.82
2023-09-05T11:50:57.916Z,5.50
2023-09-05T11:54:02.347Z,5.43
2023-09-05T11:57:08.974Z,5.07
2023-09-05T12:00:17.125Z,4.50
2023-09-05T12:03:21.414Z,4.63
2023-09-05T12:06:25.742Z,4.75
2023-09-05T12:09:32.250Z,4.50
2023-09-05T12:12:36.164Z,4.70
2023-09-05T12:15:42.001Z,4.70
2023-09-05T12:18:47.300Z,4.80
2023-09-05T12:21:51.819Z,4.38
2023-09-05T12:25:15.270Z,4.38
2023-09-05T12:28:23.509Z,4.55
2023-09-05T12:31:29.767Z,4.85
2023-09-05T12:34:33.821Z,4.97
2023-09-05T12:37:37.803Z,4.93
2023-09-05T12:40:43.913Z,4.70
2023-09-05T12:43:47.863Z,4.57
2023-09-05T12:46:55.865Z,5.15
2023-09-05T12:50:11.241Z,5.18
2023-09-05T12:53:15.891Z,4.38
2023-09-05T12:56:21.125Z,4.50
2023-09-05T12:59:26.280Z,4.88
2023-09-05T13:02:31.810Z,4.35
2023-09-05T13:05:35.966Z,4.93
2023-09-05T13:08:41.138Z,4.50
2023-09-05T13:11:45.008Z,5.05
2023-09-05T13:14:48.960Z,5.35
2023-09-05T13:17:54.847Z,5.60
2023-09-05T13:20:58.661Z,5.78
2023-09-05T13:24:02.608Z,5.40
2023-09-05T13:27:07.089Z,5.68
2023-09-05T13:30:12.501Z,5.85
2023-09-05T13:33:17.980Z,5.32
2023-09-05T13:36:22.012Z,5.28
2023-09-05T13:39:28.489Z,5.35
2023-09-05T13:42:32.704Z,5.63
2023-09-05T13:45:36.799Z,5.20
2023-09-05T13:48:42.159Z,5.60
2023-09-05T13:51:46.295Z,4.72
2023-09-05T13:54:50.384Z,5.45
2023-09-05T13:57:54.582Z,5.28
2023-09-05T14:00:59.269Z,5.05
2023-09-05T14:04:04.668Z,5.28
2023-09-05T14:07:08.643Z,5.30
2023-09-05T14:10:15.886Z,4.70
2023-09-05T14:13:19.991Z,5.13
2023-09-05T14:16:23.921Z,6.40
2023-09-05T14:19:29.494Z,5.13
2023-09-05T14:22:33.502Z,5.18
2023-09-05T14:25:37.970Z,6.13
2023-09-05T14:28:42.289Z,5.53
2023-09-05T14:31:49.127Z,5.82
2023-09-05T14:34:56.362Z,5.40
2023-09-05T14:38:00.263Z,5.60
2023-09-05T14:41:04.285Z,5.20
2023-09-05T14:44:08.393Z,5.82
2023-09-05T14:47:13.797Z,5.38
2023-09-05T14:50:20.037Z,5.63
2023-09-05T14:53:24.003Z,6.25
2023-09-05T14:56:27.879Z,6.07
2023-09-05T14:59:31.920Z,5.70
2023-09-05T15:02:35.864Z,6.43
2023-09-05T15:05:42.298Z,5.90
2023-09-05T15:08:46.725Z,6.50
2023-09-05T15:11:50.692Z,6.60
2023-09-05T15:14:54.591Z,6.30
2023-09-05T15:17:58.575Z,5.82
2023-09-05T15:21:04.122Z,6.03
2023-09-05T15:24:08.801Z,6.20
2023-09-05T15:27:14.473Z,6.30
2023-09-05T15:30:20.152Z,6.13
2023-09-05T15:33:24.330Z,5.68
2023-09-05T15:36:32.845Z,5.45
2023-09-05T15:39:36.914Z,5.72
2023-09-05T15:42:42.186Z,6.45
2023-09-05T15:45:49.988Z,6.03
2023-09-05T15:48:54.102Z,6.20
2023-09-05T15:52:00.374Z,6.07
2023-09-05T15:55:04.468Z,6.03
2023-09-05T15:58:10.092Z,6.13
2023-09-05T16:01:18.667Z,6.55
2023-09-05T16:04:22.994Z,5.60
2023-09-05T16:07:28.787Z,6.07
2023-09-05T16:10:32.796Z,6.68
2023-09-05T16:13:39.778Z,6.05
2023-09-05T16:16:43.712Z,6.53
2023-09-05T16:19:53.060Z,6.07
2023-09-05T16:22:58.517Z,6.30
2023-09-05T16:26:02.461Z,6.43
2023-09-05T16:29:06.328Z,6.15
2023-09-05T16:32:11.830Z,5.82
2023-09-05T16:35:17.089Z,6.28
2023-09-05T16:38:23.068Z,5.75
2023-09-05T16:41:31.230Z,5.68
2023-09-05T16:44:35.203Z,6.47
2023-09-05T16:47:39.051Z,7.43
2023-09-05T16:50:44.378Z,7.57
2023-09-05T16:53:49.896Z,7.75
2023-09-05T16:56:53.992Z,9.30
2023-09-05T16:59:58.014Z,8.15
2023-09-05T17:03:02.138Z,8.32
2023-09-05T17:06:06.404Z,7.57
2023-09-05T17:09:12.071Z,8.02
2023-09-05T17:12:16.186Z,7.65
2023-09-05T17:15:20.282Z,8.68
2023-09-05T17:18:24.452Z,7.85
2023-09-05T17:21:28.576Z,8.65
2023-09-05T17:24:34.302Z,8.60
2023-09-05T17:27:38.236Z,8.57
2023-09-05T17:30:42.927Z,11.18
2023-09-05T17:33:47.009Z,10.40
2023-09-05T17:36:51.032Z,9.85
2023-09-05T17:39:56.522Z,9.80
2023-09-05T17:43:00.490Z,8.80
2023-09-05T17:46:07.268Z,8.57
2023-09-05T17:49:11.249Z,9.73
2023-09-05T17:52:15.295Z,9.23
2023-09-05T17:55:20.905Z,9.05
2023-09-05T17:58:24.806Z,8.50
2023-09-05T18:01:28.885Z,9.35
2023-09-05T18:04:33.100Z,9.00
2023-09-05T18:07:42.787Z,9.35
2023-09-05T18:10:48.530Z,8.05
2023-09-05T18:13:52.497Z,8.57
2023-09-05T18:16:56.352Z,7.97
2023-09-05T18:20:00.406Z,9.05
2023-09-05T18:23:04.509Z,10.13
2023-09-05T18:26:11.615Z,8.25
2023-09-05T18:29:16.837Z,8.23
2023-09-05T18:32:21.455Z,7.72
2023-09-05T18:35:25.820Z,8.25
2023-09-05T18:38:31.286Z,9.70
2023-09-05T18:41:39.937Z,9.32
2023-09-05T18:44:45.136Z,9.75
2023-09-05T18:47:49.077Z,9.55
2023-09-05T18:50:53.226Z,9.95
2023-09-05T18:53:57.240Z,9.18
2023-09-05T18:57:02.844Z,9.02
2023-09-05T19:00:07.898Z,9.05
2023-09-05T19:03:11.959Z,8.07
2023-09-05T19:06:16.096Z,7.85
2023-09-05T19:09:22.087Z,7.95
2023-09-05T19:12:28.987Z,7.20
2023-09-05T19:15:33.001Z,7.28
2023-09-05T19:18:37.851Z,7.18
2023-09-05T19:21:44.170Z,6.60
2023-09-05T19:24:48.350Z,7.80
2023-09-05T19:27:53.703Z,6.65
2023-09-05T19:30:57.682Z,7.05
2023-09-05T19:34:01.873Z,6.82
2023-09-05T19:37:06.422Z,6.80
2023-09-05T19:40:10.749Z,6.60
2023-09-05T19:43:59.370Z,7.28
2023-09-05T19:47:04.938Z,6.85
2023-09-05T19:50:09.832Z,7.10
2023-09-05T19:53:13.921Z,6.60
2023-09-05T19:56:17.793Z,6.63
2023-09-05T19:59:21.852Z,6.85
2023-09-05T20:02:27.409Z,7.35
2023-09-05T20:05:31.563Z,7.13
2023-09-05T20:08:35.561Z,6.85
2023-09-05T20:11:39.481Z,6.53
2023-09-05T20:14:43.553Z,6.65
2023-09-05T20:17:48.900Z,6.40
2023-09-05T20:20:53.868Z,6.80
2023-09-05T20:23:58.067Z,7.03
2023-09-05T20:27:02.143Z,6.40
2023-09-05T20:30:06.927Z,6.95
2023-09-05T20:33:12.497Z,7.05
2023-09-05T20:36:16.512Z,6.80
2023-09-05T20:39:20.340Z,7.03
2023-09-05T20:42:24.437Z,6.82
2023-09-05T20:45:29.119Z,7.03
2023-09-05T20:48:35.109Z,6.93
2023-09-05T20:51:40.365Z,6.57
2023-09-05T20:54:44.308Z,6.32
2023-09-05T20:57:48.248Z,6.90
2023-09-05T21:00:53.224Z,6.55
2023-09-05T21:03:58.845Z,7.03
2023-09-05T21:07:03.025Z,7.28
2023-09-05T21:10:07.647Z,7.32
2023-09-05T21:13:12.805Z,7.53
2023-09-05T21:16:16.973Z,7.18
2023-09-05T21:19:22.450Z,6.72
2023-09-05T21:22:27.181Z,6.60
2023-09-05T21:25:31.142Z,7.28
2023-09-05T21:28:35.246Z,7.20
2023-09-05T21:31:39.374Z,6.78
2023-09-05T21:34:44.773Z,7.05
2023-09-05T21:37:49.383Z,7.90
2023-09-05T21:40:53.890Z,7.55
2023-09-05T21:43:57.940Z,8.20
2023-09-05T21:47:01.791Z,8.13
2023-09-05T21:50:09.990Z,8.70
2023-09-05T21:53:14.114Z,8.52
2023-09-05T21:56:18.045Z,7.97
2023-09-05T21:59:22.352Z,8.55
2023-09-05T22:02:27.106Z,8.95
2023-09-05T22:05:33.542Z,9.27
2023-09-05T22:08:37.580Z,8.57
2023-09-05T22:11:41.573Z,8.18
2023-09-05T22:14:45.455Z,7.97
2023-09-05T22:17:49.634Z,8.25
2023-09-05T22:20:59.034Z,8.85
2023-09-05T22:24:03.318Z,8.68
2023-09-05T22:27:07.750Z,7.82
2023-09-05T22:30:13.996Z,8.82
2023-09-05T22:33:17.906Z,8.00
2023-09-05T22:36:51.573Z,8.10
2023-09-05T22:39:58.862Z,8.20
2023-09-05T22:43:06.904Z,8.50
2023-09-05T22:46:10.822Z,9.02
2023-09-05T22:49:14.853Z,8.55
2023-09-05T22:52:20.181Z,8.63
2023-09-05T22:55:24.763Z,8.70
2023-09-05T22:58:28.953Z,8.88
2023-09-05T23:01:33.227Z,8.77
2023-09-05T23:04:37.331Z,8.65
2023-09-05T23:07:43.132Z,8.90
2023-09-05T23:10:47.147Z,9.00
2023-09-05T23:13:51.018Z,8.95
2023-09-05T23:16:55.099Z,7.70
2023-09-05T23:20:00.371Z,8.80
2023-09-05T23:23:06.633Z,9.30
2023-09-05T23:26:11.435Z,8.43
2023-09-05T23:29:16.488Z,8.65
2023-09-05T23:32:20.499Z,8.05
2023-09-05T23:35:24.360Z,8.05
2023-09-05T23:38:31.325Z,8.38
2023-09-05T23:41:35.194Z,8.10
2023-09-05T23:44:39.117Z,8.35
2023-09-05T23:47:43.979Z,7.72
2023-09-05T23:50:47.985Z,7.63
2023-09-05T23:53:53.258Z,8.32
2023-09-05T23:56:56.993Z,8.63
